Salvamar Mimosa — EC2473 — position and weather

sailwx.info

Track history (hours):
 
Tides and Currents Weather Stations Pressure Air Temp Water Temp Dewpoint Dewpoint Depression Visibility Wind Speed Wind Dir Waves Ship Positions

Salvamar Mimosa

Last reported at 2017-Nov-18 03:10 UTC. Time now 2017-Nov-19 05:08 UTC.
Position N 37°34' W 000°59'.

Length 21 m; draft 1.2 m.

Type: SAR. MMSI: 224363280.

Date/timePositionNaut miles runAvg speedWind from/ knotsBaromVisibWave heightAir tempDewpointWater temp
2017-Nov-18 03:10N 37°34' W 000°59'423.1
2017-Nov-18 03:01N 37°32' W 000°55'912.6
2017-Nov-18 02:19N 37°32' W 000°44'721.6
2017-Nov-18 01:58N 37°32' W 000°34'1322.4
2017-Nov-18 01:23N 37°34' W 000°18'9 4.6
2017-Nov-17 23:22N 37°34' W 000°30'1022.9
2017-Nov-17 22:55N 37°34' W 000°42'1022.7
2017-Nov-17 22:30N 37°33' W 000°54'3 0.5
2017-Nov-17 16:42N 37°33' W 000°58'315.8
2017-Nov-17 16:30N 37°31' W 000°55'815.4
2017-Nov-17 16:00N 37°28' W 000°46'4 2.5
2017-Nov-17 14:21N 37°31' W 000°44'3 8.7
2017-Nov-17 14:00N 37°29' W 000°46'1 2.7
2017-Nov-17 13:30N 37°28' W 000°47'7 3.9
2017-Nov-17 11:35N 37°31' W 000°56'219.7
2017-Nov-17 11:30N 37°30' W 000°54'711.8
2017-Nov-17 10:56N 37°25' W 000°48'1 2.5
2017-Nov-17 10:24N 37°24' W 000°48'  
Track history (hours):
 
Tides and Currents Weather Stations Pressure Air Temp Water Temp Dewpoint Dewpoint Depression Visibility Wind Speed Wind Dir Waves Ship Positions

Salvamar Mimosa

Last reported at 2017-Nov-18 03:10 UTC. Time now 2017-Nov-19 05:08 UTC.
Position N 37°34' W 000°59'.

Length 21 m; draft 1.2 m.

Type: SAR. MMSI: 224363280.

Date/timePositionNaut miles runAvg speedWind from/ knotsBaromVisibWave heightAir tempDewpointWater temp
2017-Nov-18 03:10N 37°34' W 000°59'423.1
2017-Nov-18 03:01N 37°32' W 000°55'912.6
2017-Nov-18 02:19N 37°32' W 000°44'721.6
2017-Nov-18 01:58N 37°32' W 000°34'1322.4
2017-Nov-18 01:23N 37°34' W 000°18'9 4.6
2017-Nov-17 23:22N 37°34' W 000°30'1022.9
2017-Nov-17 22:55N 37°34' W 000°42'1022.7
2017-Nov-17 22:30N 37°33' W 000°54'3 0.5
2017-Nov-17 16:42N 37°33' W 000°58'315.8
2017-Nov-17 16:30N 37°31' W 000°55'815.4
2017-Nov-17 16:00N 37°28' W 000°46'4 2.5
2017-Nov-17 14:21N 37°31' W 000°44'3 8.7
2017-Nov-17 14:00N 37°29' W 000°46'1 2.7
2017-Nov-17 13:30N 37°28' W 000°47'7 3.9
2017-Nov-17 11:35N 37°31' W 000°56'219.7
2017-Nov-17 11:30N 37°30' W 000°54'711.8
2017-Nov-17 10:56N 37°25' W 000°48'1 2.5
2017-Nov-17 10:24N 37°24' W 000°48'  

Dump ship's entire track history